Wetterdaten: Woche 23.02.15 - 01.03.15 (KW9)
Datum Zeit Temperatur Luftfeuchte Luftdruck Regen Wind Richtung Sonnenschein ET UV Solar Taupunkt Windchill Windben
23.02.2015 00:00 1,4 C 82 % 1006,1 hPa 0,0 l/m 1,9 km/h (1 Bft) O-SO 0,00 h 0,000 mm 0,0 UV-I 0 W/m -1,4 C 1,4 C 8,4 km/h (2 Bft)
23.02.2015 01:00 1,4 C 81 % 1004,9 hPa 0,0 l/m 3,7 km/h (1 Bft) S 0,00 h 0,000 mm 0,0 UV-I 0 W/m -1,6 C 1,3 C 13,0 km/h (3 Bft)
23.02.2015 02:00 1,6 C 79 % 1003,7 hPa 0,0 l/m 3,3 km/h (1 Bft) SW 0,00 h 0,025 mm 0,0 UV-I 0 W/m -1,7 C 1,6 C 12,3 km/h (3 Bft)
23.02.2015 03:00 1,7 C 79 % 1002,5 hPa 0,0 l/m 4,2 km/h (1 Bft) S 0,00 h 0,026 mm 0,0 UV-I 0 W/m -1,6 C 1,4 C 14,0 km/h (3 Bft)
23.02.2015 04:00 1,9 C 77 % 1001,2 hPa 0,0 l/m 6,1 km/h (2 Bft) W-SW 0,00 h 0,000 mm 0,0 UV-I 0 W/m -1,7 C 1,5 C 18,1 km/h (3 Bft)
23.02.2015 05:00 1,3 C 85 % 1000,6 hPa 0,0 l/m 6,0 km/h (2 Bft) SW 0,00 h 0,025 mm 0,0 UV-I 0 W/m -1,0 C 0,5 C 18,4 km/h (3 Bft)
23.02.2015 06:00 0,6 C 92 % 1000,1 hPa 0,0 l/m 2,8 km/h (1 Bft) W 0,00 h 0,000 mm 0,0 UV-I 0 W/m -0,6 C 0,5 C 13,4 km/h (3 Bft)
23.02.2015 07:00 0,4 C 93 % 999,5 hPa 1,4 l/m 1,5 km/h (1 Bft) W 0,00 h 0,000 mm 0,0 UV-I 0 W/m -0,5 C 0,4 C 6,7 km/h (2 Bft)
23.02.2015 08:00 0,6 C 94 % 999,0 hPa 1,6 l/m 0,4 km/h (0 Bft) N 0,00 h 0,000 mm 0,0 UV-I 4 W/m -0,3 C 0,6 C 4,1 km/h (1 Bft)
23.02.2015 09:00 0,7 C 94 % 998,8 hPa 2,0 l/m 0,3 km/h (0 Bft) N 0,00 h 0,000 mm 0,0 UV-I 9 W/m -0,1 C 0,7 C 2,9 km/h (1 Bft)
23.02.2015 10:00 0,9 C 94 % 998,5 hPa 1,4 l/m 0,1 km/h (0 Bft) N 0,00 h 0,000 mm 0,0 UV-I 12 W/m 0,1 C 0,9 C 2,1 km/h (1 Bft)
23.02.2015 11:00 1,2 C 94 % 998,2 hPa 0,8 l/m 0,2 km/h (0 Bft) W-NW 0,00 h 0,000 mm 0,0 UV-I 18 W/m 0,3 C 1,2 C 1,7 km/h (1 Bft)
23.02.2015 12:00 1,2 C 93 % 997,6 hPa 0,2 l/m 1,0 km/h (0 Bft) SW 0,00 h 0,000 mm 0,0 UV-I 30 W/m 0,2 C 1,2 C 5,9 km/h (2 Bft)
23.02.2015 13:00 1,3 C 93 % 997,2 hPa 0,2 l/m 1,2 km/h (1 Bft) S-SO 0,00 h 0,000 mm 0,5 UV-I 67 W/m 0,3 C 1,3 C 6,4 km/h (2 Bft)
23.02.2015 14:00 1,6 C 93 % 997,2 hPa 0,0 l/m 0,9 km/h (0 Bft) W 0,00 h 0,026 mm 0,4 UV-I 61 W/m 0,6 C 1,6 C 5,5 km/h (1 Bft)
23.02.2015 15:00 1,8 C 93 % 997,4 hPa 0,0 l/m 1,7 km/h (1 Bft) W 0,00 h 0,025 mm 0,3 UV-I 57 W/m 0,8 C 1,8 C 6,6 km/h (2 Bft)
23.02.2015 16:00 1,9 C 93 % 997,4 hPa 0,0 l/m 0,2 km/h (0 Bft) N 0,00 h 0,025 mm 0,0 UV-I 37 W/m 0,9 C 1,9 C 2,0 km/h (1 Bft)
23.02.2015 17:00 1,9 C 93 % 998,0 hPa 0,0 l/m 0,0 km/h (0 Bft) N 0,00 h 0,026 mm 0,0 UV-I 9 W/m 1,0 C 1,9 C 0,7 km/h (0 Bft)
23.02.2015 18:00 1,8 C 94 % 998,2 hPa 0,0 l/m 0,3 km/h (0 Bft) O-NO 0,00 h 0,000 mm 0,0 UV-I 0 W/m 0,9 C 1,8 C 2,0 km/h (1 Bft)
23.02.2015 19:00 1,9 C 95 % 998,7 hPa 0,0 l/m 0,6 km/h (0 Bft) SW 0,00 h 0,000 mm 0,0 UV-I 0 W/m 1,1 C 1,9 C 3,1 km/h (1 Bft)
23.02.2015 20:00 2,0 C 94 % 999,0 hPa 0,2 l/m 0,0 km/h (0 Bft) N 0,00 h 0,000 mm 0,0 UV-I 0 W/m 1,2 C 2,0 C 0,3 km/h (0 Bft)
23.02.2015 21:00 2,1 C 95 % 999,2 hPa 0,0 l/m 0,1 km/h (0 Bft) N 0,00 h 0,000 mm 0,0 UV-I 0 W/m 1,4 C 2,1 C 2,0 km/h (1 Bft)
23.02.2015 22:00 2,5 C 95 % 999,7 hPa 0,0 l/m 0,6 km/h (0 Bft) S-SW 0,00 h 0,000 mm 0,0 UV-I 0 W/m 1,8 C 2,5 C 3,7 km/h (1 Bft)
23.02.2015 23:00 2,8 C 95 % 1000,0 hPa 0,0 l/m 1,9 km/h (1 Bft) W-NW 0,00 h 0,000 mm 0,0 UV-I 0 W/m 2,1 C 2,8 C 5,9 km/h (2 Bft)
24.02.2015 00:00 2,7 C 94 % 1000,4 hPa 0,0 l/m 4,6 km/h (1 Bft) W-NW 0,00 h 0,000 mm 0,0 UV-I 0 W/m 1,9 C 2,6 C 9,8 km/h (2 Bft)
24.02.2015 01:00 2,6 C 92 % 1000,5 hPa 0,0 l/m 5,9 km/h (2 Bft) W-NW 0,00 h 0,000 mm 0,0 UV-I 0 W/m 1,5 C 2,4 C 12,0 km/h (2 Bft)
24.02.2015 02:00 2,3 C 92 % 1001,0 hPa 0,0 l/m 1,6 km/h (1 Bft) W 0,00 h 0,000 mm 0,0 UV-I 0 W/m 1,1 C 2,2 C 6,0 km/h (2 Bft)
24.02.2015 03:00 2,2 C 93 % 1001,7 hPa 0,0 l/m 1,5 km/h (1 Bft) SW 0,00 h 0,000 mm 0,0 UV-I 0 W/m 1,1 C 2,2 C 6,6 km/h (2 Bft)
24.02.2015 04:00 2,1 C 92 % 1002,2 hPa 0,0 l/m 2,8 km/h (1 Bft) W 0,00 h 0,000 mm 0,0 UV-I 0 W/m 1,0 C 2,1 C 8,6 km/h (2 Bft)
24.02.2015 05:00 1,6 C 91 % 1002,7 hPa 0,0 l/m 3,0 km/h (1 Bft) W 0,00 h 0,000 mm 0,0 UV-I 0 W/m 0,4 C 1,6 C 9,9 km/h (2 Bft)
24.02.2015 06:00 1,3 C 91 % 1003,0 hPa 0,0 l/m 2,9 km/h (1 Bft) W-NW 0,00 h 0,000 mm 0,0 UV-I 0 W/m -0,0 C 1,3 C 8,7 km/h (2 Bft)
24.02.2015 07:00 1,2 C 90 % 1003,6 hPa 0,0 l/m 2,3 km/h (1 Bft) W-NW 0,00 h 0,000 mm 0,0 UV-I 10 W/m -0,2 C 1,2 C 7,1 km/h (2 Bft)
24.02.2015 08:00 1,9 C 87 % 1004,2 hPa 0,0 l/m 5,7 km/h (1 Bft) W-SW 0,42 h 0,000 mm 0,0 UV-I 84 W/m 0,0 C 1,8 C 13,3 km/h (3 Bft)
24.02.2015 09:00 3,1 C 84 % 1004,9 hPa 0,0 l/m 8,6 km/h (2 Bft) SW 1,00 h 0,051 mm 0,6 UV-I 297 W/m 0,7 C 1,1 C 18,6 km/h (3 Bft)
24.02.2015 10:00 4,1 C 81 % 1005,4 hPa 0,0 l/m 7,8 km/h (2 Bft) W 1,00 h 0,127 mm 1,0 UV-I 423 W/m 1,0 C 2,7 C 17,3 km/h (3 Bft)
24.02.2015 11:00 5,3 C 77 % 1006,0 hPa 0,0 l/m 9,3 km/h (2 Bft) SW 1,00 h 0,178 mm 1,4 UV-I 606 W/m 1,7 C 3,0 C 19,6 km/h (3 Bft)
24.02.2015 12:00 6,3 C 75 % 1006,5 hPa 0,0 l/m 10,3 km/h (2 Bft) S-SW 1,00 h 0,228 mm 1,5 UV-I 605 W/m 2,1 C 3,4 C 22,0 km/h (4 Bft)
24.02.2015 13:00 6,2 C 74 % 1007,1 hPa 0,0 l/m 12,3 km/h (3 Bft) SW 0,58 h 0,280 mm 1,1 UV-I 322 W/m 1,9 C 2,1 C 25,1 km/h (4 Bft)
24.02.2015 14:00 6,0 C 74 % 1007,8 hPa 0,0 l/m 9,9 km/h (2 Bft) SW 0,17 h 0,152 mm 0,7 UV-I 184 W/m 1,7 C 3,2 C 22,5 km/h (4 Bft)
24.02.2015 15:00 6,1 C 74 % 1008,3 hPa 0,0 l/m 8,9 km/h (2 Bft) SW 0,08 h 0,102 mm 0,5 UV-I 114 W/m 1,7 C 4,1 C 19,6 km/h (3 Bft)
24.02.2015 16:00 5,8 C 76 % 1009,2 hPa 0,0 l/m 9,0 km/h (2 Bft) W-SW 0,33 h 0,076 mm 0,0 UV-I 109 W/m 1,9 C 3,7 C 19,8 km/h (4 Bft)
24.02.2015 17:00 5,4 C 77 % 1010,3 hPa 0,0 l/m 7,0 km/h (2 Bft) S-SW 0,50 h 0,051 mm 0,0 UV-I 34 W/m 1,8 C 4,3 C 14,8 km/h (3 Bft)
24.02.2015 18:00 4,8 C 80 % 1011,4 hPa 0,0 l/m 3,2 km/h (1 Bft) W-NW 0,00 h 0,025 mm 0,0 UV-I 0 W/m 1,6 C 4,8 C 9,1 km/h (2 Bft)
24.02.2015 19:00 3,9 C 82 % 1012,4 hPa 0,0 l/m 0,5 km/h (0 Bft) W-NW 0,00 h 0,000 mm 0,0 UV-I 0 W/m 1,1 C 3,9 C 2,9 km/h (1 Bft)
24.02.2015 20:00 2,3 C 87 % 1013,0 hPa 0,0 l/m 0,1 km/h (0 Bft) N 0,00 h 0,000 mm 0,0 UV-I 0 W/m 0,4 C 2,3 C 0,8 km/h (0 Bft)
24.02.2015 21:00 1,0 C 89 % 1013,6 hPa 0,0 l/m 0,0 km/h (0 Bft) N 0,00 h 0,000 mm 0,0 UV-I 0 W/m -0,5 C 1,0 C 0,0 km/h (0 Bft)
24.02.2015 22:00 0,1 C 90 % 1014,1 hPa 0,0 l/m 0,0 km/h (0 Bft) N 0,00 h 0,000 mm 0,0 UV-I 0 W/m -1,4 C 0,1 C 0,1 km/h (0 Bft)
24.02.2015 23:00 -1,0 C 92 % 1014,3 hPa 0,0 l/m 0,0 km/h (0 Bft) N 0,00 h 0,000 mm 0,0 UV-I 0 W/m -2,2 C -1,0 C 0,1 km/h (0 Bft)
25.02.2015 00:00 -1,5 C 93 % 1014,8 hPa 0,0 l/m 0,0 km/h (0 Bft) N 0,00 h 0,000 mm 0,0 UV-I 0 W/m -2,5 C -1,5 C 0,1 km/h (0 Bft)
25.02.2015 01:00 -1,5 C 93 % 1015,5 hPa 0,0 l/m 0,0 km/h (0 Bft) N 0,00 h 0,000 mm 0,0 UV-I 0 W/m -2,5 C -1,5 C 0,1 km/h (0 Bft)
25.02.2015 02:00 -1,0 C 94 % 1015,8 hPa 0,0 l/m 0,0 km/h (0 Bft) N 0,00 h 0,000 mm 0,0 UV-I 0 W/m -1,9 C -1,0 C 0,0 km/h (0 Bft)
25.02.2015 03:00 -0,8 C 94 % 1016,1 hPa 0,0 l/m 0,0 km/h (0 Bft) N 0,00 h 0,000 mm 0,0 UV-I 0 W/m -1,6 C -0,8 C 0,0 km/h (0 Bft)
25.02.2015 04:00 -0,5 C 94 % 1016,5 hPa 0,0 l/m 0,0 km/h (0 Bft) N 0,00 h 0,000 mm 0,0 UV-I 0 W/m -1,4 C -0,5 C 0,0 km/h (0 Bft)
25.02.2015 05:00 0,2 C 94 % 1017,0 hPa 0,0 l/m 0,0 km/h (0 Bft) N 0,00 h 0,000 mm 0,0 UV-I 0 W/m -0,6 C 0,2 C 0,7 km/h (0 Bft)
25.02.2015 06:00 0,8 C 94 % 1017,4 hPa 0,0 l/m 0,0 km/h (0 Bft) N 0,00 h 0,000 mm 0,0 UV-I 0 W/m -0,0 C 0,8 C 0,4 km/h (0 Bft)
25.02.2015 07:00 0,2 C 94 % 1017,6 hPa 0,0 l/m 0,1 km/h (0 Bft) N 0,00 h 0,000 mm 0,0 UV-I 10 W/m -0,7 C 0,2 C 0,5 km/h (0 Bft)
25.02.2015 08:00 0,3 C 94 % 1018,2 hPa 0,0 l/m 0,0 km/h (0 Bft) N 0,00 h 0,000 mm 0,0 UV-I 54 W/m -0,5 C 0,3 C 0,5 km/h (0 Bft)
25.02.2015 09:00 2,0 C 94 % 1018,6 hPa 0,0 l/m 0,5 km/h (0 Bft) W 0,00 h 0,025 mm 0,5 UV-I 110 W/m 1,2 C 2,0 C 2,7 km/h (1 Bft)
25.02.2015 10:00 3,0 C 92 % 1018,9 hPa 0,0 l/m 1,8 km/h (1 Bft) S-SW 0,17 h 0,051 mm 0,6 UV-I 171 W/m 1,8 C 3,0 C 6,4 km/h (2 Bft)
25.02.2015 11:00 5,3 C 82 % 1018,9 hPa 0,0 l/m 0,8 km/h (0 Bft) SW 0,75 h 0,076 mm 1,1 UV-I 334 W/m 2,5 C 5,3 C 4,8 km/h (1 Bft)
25.02.2015 12:00 7,0 C 70 % 1018,7 hPa 0,0 l/m 7,0 km/h (2 Bft) SW 1,00 h 0,153 mm 1,4 UV-I 500 W/m 2,0 C 6,2 C 15,0 km/h (3 Bft)
25.02.2015 13:00 7,6 C 64 % 1018,5 hPa 0,0 l/m 7,8 km/h (2 Bft) SW 0,83 h 0,203 mm 1,3 UV-I 470 W/m 1,2 C 6,5 C 16,5 km/h (3 Bft)
25.02.2015 14:00 8,5 C 59 % 1018,2 hPa 0,0 l/m 6,7 km/h (2 Bft) S-SW 1,00 h 0,229 mm 1,0 UV-I 473 W/m 1,0 C 8,0 C 14,1 km/h (3 Bft)
25.02.2015 15:00 8,7 C 55 % 1018,1 hPa 0,0 l/m 5,5 km/h (1 Bft) W-SW 0,92 h 0,228 mm 0,7 UV-I 294 W/m 0,2 C 8,5 C 12,4 km/h (3 Bft)
25.02.2015 16:00 8,1 C 58 % 1018,2 hPa 0,0 l/m 6,7 km/h (2 Bft) W-SW 0,83 h 0,178 mm 0,1 UV-I 162 W/m 0,3 C 7,5 C 13,4 km/h (3 Bft)
25.02.2015 17:00 6,5 C 66 % 1018,7 hPa 0,0 l/m 4,8 km/h (1 Bft) W-NW 0,17 h 0,102 mm 0,0 UV-I 27 W/m 0,7 C 6,3 C 11,1 km/h (2 Bft)
25.02.2015 18:00 5,0 C 74 % 1019,3 hPa 0,0 l/m 0,2 km/h (0 Bft) N 0,00 h 0,025 mm 0,0 UV-I 0 W/m 0,7 C 5,0 C 2,3 km/h (1 Bft)
25.02.2015 19:00 4,3 C 79 % 1019,8 hPa 0,0 l/m 0,6 km/h (0 Bft) W-SW 0,00 h 0,000 mm 0,0 UV-I 0 W/m 1,1 C 4,3 C 3,7 km/h (1 Bft)
25.02.2015 20:00 3,9 C 85 % 1020,2 hPa 0,0 l/m 0,0 km/h (0 Bft) N 0,00 h 0,000 mm 0,0 UV-I 0 W/m 1,6 C 3,9 C 1,1 km/h (0 Bft)
25.02.2015 21:00 3,5 C 89 % 1020,5 hPa 0,2 l/m 0,9 km/h (0 Bft) SW 0,00 h 0,000 mm 0,0 UV-I 0 W/m 1,9 C 3,5 C 5,2 km/h (1 Bft)
25.02.2015 22:00 3,3 C 90 % 1020,7 hPa 0,0 l/m 1,2 km/h (1 Bft) SW 0,00 h 0,000 mm 0,0 UV-I 0 W/m 1,8 C 3,3 C 5,5 km/h (1 Bft)
25.02.2015 23:00 3,1 C 91 % 1020,7 hPa 0,0 l/m 0,1 km/h (0 Bft) N 0,00 h 0,000 mm 0,0 UV-I 0 W/m 1,8 C 3,1 C 2,0 km/h (1 Bft)
26.02.2015 00:00 3,1 C 92 % 1020,8 hPa 0,2 l/m 0,1 km/h (0 Bft) N 0,00 h 0,000 mm 0,0 UV-I 0 W/m 1,9 C 3,1 C 0,5 km/h (0 Bft)
26.02.2015 01:00 3,2 C 92 % 1020,9 hPa 0,0 l/m 0,0 km/h (0 Bft) N 0,00 h 0,000 mm 0,0 UV-I 0 W/m 2,0 C 3,2 C 0,0 km/h (0 Bft)
26.02.2015 02:00 3,2 C 92 % 1020,9 hPa 0,0 l/m 0,0 km/h (0 Bft) N 0,00 h 0,000 mm 0,0 UV-I 0 W/m 2,1 C 3,2 C 0,0 km/h (0 Bft)
26.02.2015 03:00 3,1 C 93 % 1020,7 hPa 0,0 l/m 0,0 km/h (0 Bft) N 0,00 h 0,000 mm 0,0 UV-I 0 W/m 2,1 C 3,1 C 0,7 km/h (0 Bft)
26.02.2015 04:00 3,1 C 93 % 1020,6 hPa 0,0 l/m 0,0 km/h (0 Bft) N 0,00 h 0,000 mm 0,0 UV-I 0 W/m 2,1 C 3,1 C 0,4 km/h (0 Bft)
26.02.2015 05:00 3,1 C 93 % 1020,8 hPa 0,0 l/m 0,0 km/h (0 Bft) N 0,00 h 0,000 mm 0,0 UV-I 0 W/m 2,1 C 3,1 C 0,0 km/h (0 Bft)
26.02.2015 06:00 2,9 C 94 % 1020,8 hPa 0,0 l/m 0,3 km/h (0 Bft) O-NO 0,00 h 0,000 mm 0,0 UV-I 0 W/m 2,0 C 2,9 C 1,9 km/h (1 Bft)
26.02.2015 07:00 2,9 C 94 % 1020,7 hPa 0,0 l/m 0,1 km/h (0 Bft) N 0,00 h 0,000 mm 0,0 UV-I 6 W/m 2,0 C 2,9 C 0,8 km/h (0 Bft)
26.02.2015 08:00 3,1 C 94 % 1020,7 hPa 0,0 l/m 0,0 km/h (0 Bft) N 0,00 h 0,000 mm 0,0 UV-I 42 W/m 2,3 C 3,1 C 0,1 km/h (0 Bft)
26.02.2015 09:00 4,3 C 93 % 1020,5 hPa 0,0 l/m 1,8 km/h (1 Bft) O-NO 0,25 h 0,025 mm 0,4 UV-I 117 W/m 3,2 C 4,3 C 5,2 km/h (1 Bft)
26.02.2015 10:00 5,0 C 90 % 1019,9 hPa 0,0 l/m 3,6 km/h (1 Bft) O 0,75 h 0,051 mm 0,9 UV-I 248 W/m 3,5 C 5,0 C 9,9 km/h (2 Bft)
26.02.2015 11:00 5,6 C 86 % 1019,7 hPa 0,0 l/m 2,4 km/h (1 Bft) O-SO 0,17 h 0,102 mm 0,8 UV-I 167 W/m 3,5 C 5,6 C 6,8 km/h (2 Bft)
26.02.2015 12:00 6,0 C 85 % 1019,4 hPa 0,0 l/m 1,0 km/h (0 Bft) O 0,00 h 0,076 mm 0,7 UV-I 130 W/m 3,7 C 6,0 C 4,4 km/h (1 Bft)
26.02.2015 13:00 7,0 C 81 % 1018,4 hPa 0,0 l/m 3,3 km/h (1 Bft) S-SW 0,00 h 0,051 mm 1,1 UV-I 210 W/m 4,0 C 7,0 C 10,6 km/h (2 Bft)
26.02.2015 14:00 7,4 C 75 % 1017,6 hPa 0,0 l/m 6,0 km/h (2 Bft) S 0,25 h 0,101 mm 0,9 UV-I 234 W/m 3,3 C 6,9 C 15,6 km/h (3 Bft)
26.02.2015 15:00 7,0 C 75 % 1016,9 hPa 0,0 l/m 4,4 km/h (1 Bft) S-SO 0,00 h 0,127 mm 0,3 UV-I 67 W/m 2,9 C 6,9 C 11,0 km/h (2 Bft)
26.02.2015 16:00 6,8 C 77 % 1016,2 hPa 0,0 l/m 2,3 km/h (1 Bft) S 0,00 h 0,051 mm 0,0 UV-I 61 W/m 3,0 C 6,8 C 9,6 km/h (2 Bft)
26.02.2015 17:00 6,6 C 77 % 1015,6 hPa 0,0 l/m 2,0 km/h (1 Bft) O-SO 0,00 h 0,026 mm 0,0 UV-I 23 W/m 2,8 C 6,6 C 8,8 km/h (2 Bft)
26.02.2015 18:00 6,4 C 76 % 1015,3 hPa 0,0 l/m 0,6 km/h (0 Bft) O 0,00 h 0,025 mm 0,0 UV-I 0 W/m 2,5 C 6,4 C 4,3 km/h (1 Bft)
26.02.2015 19:00 6,0 C 77 % 1014,6 hPa 0,0 l/m 0,0 km/h (0 Bft) N 0,00 h 0,000 mm 0,0 UV-I 0 W/m 2,4 C 6,0 C 0,7 km/h (0 Bft)
26.02.2015 20:00 5,8 C 76 % 1013,7 hPa 0,0 l/m 0,1 km/h (0 Bft) N 0,00 h 0,025 mm 0,0 UV-I 0 W/m 1,9 C 5,8 C 1,5 km/h (1 Bft)
26.02.2015 21:00 6,0 C 73 % 1012,9 hPa 0,0 l/m 0,1 km/h (0 Bft) N 0,00 h 0,026 mm 0,0 UV-I 0 W/m 1,4 C 6,0 C 1,6 km/h (1 Bft)
26.02.2015 22:00 6,2 C 72 % 1012,3 hPa 0,0 l/m 0,2 km/h (0 Bft) N 0,00 h 0,025 mm 0,0 UV-I 0 W/m 1,4 C 6,2 C 2,0 km/h (1 Bft)
26.02.2015 23:00 5,5 C 76 % 1011,4 hPa 0,0 l/m 0,6 km/h (0 Bft) O-NO 0,00 h 0,026 mm 0,0 UV-I 0 W/m 1,7 C 5,5 C 3,3 km/h (1 Bft)
27.02.2015 00:00 5,2 C 75 % 1010,8 hPa 0,0 l/m 1,6 km/h (1 Bft) O-NO 0,00 h 0,025 mm 0,0 UV-I 0 W/m 1,2 C 5,2 C 5,3 km/h (1 Bft)
27.02.2015 01:00 5,3 C 73 % 1010,4 hPa 0,0 l/m 0,3 km/h (0 Bft) N 0,00 h 0,000 mm 0,0 UV-I 0 W/m 0,8 C 5,3 C 3,1 km/h (1 Bft)
27.02.2015 02:00 4,6 C 81 % 1010,1 hPa 0,6 l/m 1,7 km/h (1 Bft) W 0,00 h 0,026 mm 0,0 UV-I 0 W/m 1,6 C 4,6 C 7,6 km/h (2 Bft)
27.02.2015 03:00 3,6 C 89 % 1009,3 hPa 0,6 l/m 0,5 km/h (0 Bft) NO 0,00 h 0,025 mm 0,0 UV-I 0 W/m 1,9 C 3,6 C 3,7 km/h (1 Bft)
27.02.2015 04:00 3,3 C 91 % 1008,9 hPa 1,0 l/m 0,3 km/h (0 Bft) O-NO 0,00 h 0,000 mm 0,0 UV-I 0 W/m 1,9 C 3,3 C 2,3 km/h (1 Bft)
27.02.2015 05:00 2,7 C 92 % 1008,9 hPa 0,4 l/m 1,8 km/h (1 Bft) NO 0,00 h 0,000 mm 0,0 UV-I 0 W/m 1,5 C 2,7 C 6,7 km/h (2 Bft)
27.02.2015 06:00 2,2 C 92 % 1009,0 hPa 0,8 l/m 0,0 km/h (0 Bft) N 0,00 h 0,000 mm 0,0 UV-I 0 W/m 1,0 C 2,2 C 1,2 km/h (1 Bft)
27.02.2015 07:00 1,6 C 92 % 1009,6 hPa 1,0 l/m 0,0 km/h (0 Bft) N 0,00 h 0,000 mm 0,0 UV-I 6 W/m 0,5 C 1,6 C 0,0 km/h (0 Bft)
27.02.2015 08:00 1,2 C 93 % 1010,2 hPa 0,8 l/m 0,0 km/h (0 Bft) N 0,00 h 0,000 mm 0,0 UV-I 21 W/m 0,2 C 1,2 C 0,0 km/h (0 Bft)
27.02.2015 09:00 1,3 C 94 % 1010,9 hPa 0,6 l/m 0,0 km/h (0 Bft) N 0,00 h 0,000 mm 0,4 UV-I 68 W/m 0,5 C 1,3 C 0,0 km/h (0 Bft)
27.02.2015 10:00 1,8 C 94 % 1011,6 hPa 0,2 l/m 0,0 km/h (0 Bft) N 0,00 h 0,026 mm 0,6 UV-I 116 W/m 0,9 C 1,8 C 0,0 km/h (0 Bft)
27.02.2015 11:00 2,9 C 94 % 1012,2 hPa 0,0 l/m 1,0 km/h (0 Bft) W 0,00 h 0,050 mm 0,9 UV-I 169 W/m 2,1 C 2,9 C 3,7 km/h (1 Bft)
27.02.2015 12:00 4,5 C 93 % 1012,8 hPa 0,0 l/m 1,9 km/h (1 Bft) W-NW 0,00 h 0,051 mm 0,9 UV-I 167 W/m 3,4 C 4,5 C 7,8 km/h (2 Bft)
27.02.2015 13:00 4,9 C 89 % 1013,3 hPa 0,0 l/m 1,9 km/h (1 Bft) NW 0,00 h 0,076 mm 0,8 UV-I 145 W/m 3,3 C 4,9 C 7,5 km/h (2 Bft)
27.02.2015 14:00 4,7 C 89 % 1013,9 hPa 0,2 l/m 3,6 km/h (1 Bft) W-NW 0,00 h 0,051 mm 0,6 UV-I 115 W/m 3,0 C 4,7 C 10,1 km/h (2 Bft)
27.02.2015 15:00 4,3 C 89 % 1014,8 hPa 0,0 l/m 3,9 km/h (1 Bft) W-NW 0,00 h 0,051 mm 0,5 UV-I 85 W/m 2,7 C 4,3 C 12,3 km/h (3 Bft)
27.02.2015 16:00 3,9 C 90 % 1015,7 hPa 0,2 l/m 3,4 km/h (1 Bft) W-NW 0,00 h 0,025 mm 0,0 UV-I 35 W/m 2,3 C 3,8 C 9,8 km/h (2 Bft)
27.02.2015 17:00 3,8 C 90 % 1016,5 hPa 0,0 l/m 1,5 km/h (1 Bft) W-NW 0,00 h 0,026 mm 0,0 UV-I 14 W/m 2,3 C 3,8 C 6,4 km/h (2 Bft)
27.02.2015 18:00 3,5 C 90 % 1017,4 hPa 0,0 l/m 0,8 km/h (0 Bft) W-NW 0,00 h 0,000 mm 0,0 UV-I 1 W/m 2,0 C 3,5 C 4,7 km/h (1 Bft)
27.02.2015 19:00 3,3 C 91 % 1018,2 hPa 0,0 l/m 0,1 km/h (0 Bft) W-NW 0,00 h 0,000 mm 0,0 UV-I 0 W/m 2,0 C 3,3 C 2,0 km/h (1 Bft)
27.02.2015 20:00 3,2 C 92 % 1018,9 hPa 0,0 l/m 0,7 km/h (0 Bft) W-NW 0,00 h 0,000 mm 0,0 UV-I 0 W/m 1,9 C 3,2 C 2,9 km/h (1 Bft)
27.02.2015 21:00 3,0 C 92 % 1019,6 hPa 0,0 l/m 0,3 km/h (0 Bft) N 0,00 h 0,000 mm 0,0 UV-I 0 W/m 1,8 C 3,0 C 2,7 km/h (1 Bft)
27.02.2015 22:00 2,7 C 91 % 1020,2 hPa 0,0 l/m 1,0 km/h (0 Bft) W 0,00 h 0,000 mm 0,0 UV-I 0 W/m 1,3 C 2,7 C 4,8 km/h (1 Bft)
27.02.2015 23:00 2,0 C 91 % 1020,5 hPa 0,0 l/m 1,0 km/h (0 Bft) W-NW 0,00 h 0,000 mm 0,0 UV-I 0 W/m 0,6 C 2,0 C 4,0 km/h (1 Bft)
28.02.2015 00:00 1,4 C 91 % 1020,9 hPa 0,0 l/m 0,6 km/h (0 Bft) W-NW 0,00 h 0,000 mm 0,0 UV-I 0 W/m 0,1 C 1,4 C 2,7 km/h (1 Bft)
28.02.2015 01:00 0,5 C 92 % 1021,0 hPa 0,0 l/m 0,1 km/h (0 Bft) N 0,00 h 0,000 mm 0,0 UV-I 0 W/m -0,7 C 0,5 C 0,7 km/h (0 Bft)
28.02.2015 02:00 -0,4 C 93 % 1021,2 hPa 0,0 l/m 0,0 km/h (0 Bft) N 0,00 h 0,000 mm 0,0 UV-I 0 W/m -1,4 C -0,4 C 0,4 km/h (0 Bft)
28.02.2015 03:00 -0,8 C 94 % 1021,3 hPa 0,0 l/m 0,0 km/h (0 Bft) N 0,00 h 0,000 mm 0,0 UV-I 0 W/m -1,7 C -0,8 C 0,1 km/h (0 Bft)
28.02.2015 04:00 -1,1 C 94 % 1021,4 hPa 0,0 l/m 0,2 km/h (0 Bft) N 0,00 h 0,000 mm 0,0 UV-I 0 W/m -1,9 C -1,1 C 1,2 km/h (1 Bft)
28.02.2015 05:00 -1,7 C 94 % 1021,3 hPa 0,0 l/m 0,0 km/h (0 Bft) N 0,00 h 0,000 mm 0,0 UV-I 0 W/m -2,5 C -1,7 C 0,0 km/h (0 Bft)
28.02.2015 06:00 -1,0 C 95 % 1021,4 hPa 0,0 l/m 0,1 km/h (0 Bft) N 0,00 h 0,000 mm 0,0 UV-I 0 W/m -1,7 C -1,0 C 1,2 km/h (1 Bft)
28.02.2015 07:00 -0,5 C 95 % 1021,7 hPa 0,0 l/m 0,2 km/h (0 Bft) W-NW 0,00 h 0,000 mm 0,0 UV-I 14 W/m -1,2 C -0,5 C 2,1 km/h (1 Bft)
28.02.2015 08:00 -0,2 C 95 % 1021,9 hPa 0,0 l/m 0,5 km/h (0 Bft) SW 0,00 h 0,000 mm 0,0 UV-I 42 W/m -0,9 C -0,2 C 3,2 km/h (1 Bft)
28.02.2015 09:00 0,0 C 95 % 1022,0 hPa 0,0 l/m 1,4 km/h (1 Bft) W 0,00 h 0,025 mm 0,5 UV-I 105 W/m -0,7 C 0,0 C 5,1 km/h (1 Bft)
28.02.2015 10:00 1,9 C 90 % 1021,8 hPa 0,0 l/m 0,5 km/h (0 Bft) SW 0,50 h 0,051 mm 1,0 UV-I 306 W/m 0,4 C 1,9 C 3,1 km/h (1 Bft)
28.02.2015 11:00 3,7 C 86 % 1021,4 hPa 0,0 l/m 2,2 km/h (1 Bft) SO 1,00 h 0,102 mm 1,6 UV-I 496 W/m 1,6 C 3,7 C 6,4 km/h (2 Bft)
28.02.2015 12:00 5,2 C 77 % 1020,5 hPa 0,0 l/m 4,4 km/h (1 Bft) SO 0,75 h 0,203 mm 1,7 UV-I 467 W/m 1,5 C 5,0 C 10,9 km/h (2 Bft)
28.02.2015 13:00 6,4 C 62 % 1019,8 hPa 0,0 l/m 7,0 km/h (2 Bft) S 0,92 h 0,203 mm 1,6 UV-I 459 W/m -0,2 C 5,7 C 15,0 km/h (3 Bft)
28.02.2015 14:00 7,0 C 59 % 1019,1 hPa 0,0 l/m 6,0 km/h (2 Bft) S 1,00 h 0,203 mm 1,4 UV-I 467 W/m -0,5 C 6,8 C 14,5 km/h (3 Bft)
28.02.2015 15:00 7,7 C 52 % 1018,5 hPa 0,0 l/m 6,0 km/h (2 Bft) S-SO 0,83 h 0,204 mm 0,9 UV-I 331 W/m -1,4 C 7,2 C 16,0 km/h (3 Bft)
28.02.2015 16:00 7,4 C 52 % 1017,6 hPa 0,0 l/m 5,9 km/h (2 Bft) S-SW 1,00 h 0,177 mm 0,6 UV-I 226 W/m -1,8 C 6,8 C 14,1 km/h (3 Bft)
28.02.2015 17:00 6,6 C 56 % 1016,7 hPa 0,0 l/m 2,6 km/h (1 Bft) S-SW 0,92 h 0,127 mm 0,0 UV-I 61 W/m -1,6 C 6,6 C 8,2 km/h (2 Bft)
28.02.2015 18:00 4,7 C 63 % 1016,5 hPa 0,0 l/m 0,4 km/h (0 Bft) N 0,00 h 0,051 mm 0,0 UV-I 3 W/m -1,7 C 4,7 C 3,6 km/h (1 Bft)
28.02.2015 19:00 3,6 C 66 % 1016,1 hPa 0,0 l/m 0,4 km/h (0 Bft) O 0,00 h 0,000 mm 0,0 UV-I 0 W/m -2,2 C 3,6 C 3,9 km/h (1 Bft)
28.02.2015 20:00 3,1 C 67 % 1015,7 hPa 0,0 l/m 0,5 km/h (0 Bft) O-SO 0,00 h 0,026 mm 0,0 UV-I 0 W/m -2,5 C 3,1 C 3,7 km/h (1 Bft)
28.02.2015 21:00 2,9 C 68 % 1015,1 hPa 0,0 l/m 1,1 km/h (1 Bft) O 0,00 h 0,025 mm 0,0 UV-I 0 W/m -2,4 C 2,9 C 6,0 km/h (2 Bft)
28.02.2015 22:00 2,4 C 72 % 1014,0 hPa 0,0 l/m 0,3 km/h (0 Bft) SW 0,00 h 0,025 mm 0,0 UV-I 0 W/m -2,1 C 2,4 C 3,3 km/h (1 Bft)
28.02.2015 23:00 2,3 C 75 % 1012,8 hPa 0,0 l/m 1,0 km/h (0 Bft) SO 0,00 h 0,026 mm 0,0 UV-I 0 W/m -1,8 C 2,3 C 6,4 km/h (2 Bft)
01.03.2015 00:00 2,8 C 74 % 1011,7 hPa 0,0 l/m 0,7 km/h (0 Bft) S 0,00 h 0,000 mm 0,0 UV-I 0 W/m -1,4 C 2,8 C 4,7 km/h (1 Bft)
01.03.2015 01:00 3,3 C 72 % 1010,8 hPa 0,0 l/m 1,3 km/h (1 Bft) O-NO 0,00 h 0,025 mm 0,0 UV-I 0 W/m -1,2 C 3,3 C 6,7 km/h (2 Bft)
01.03.2015 02:00 3,4 C 72 % 1009,6 hPa 0,0 l/m 1,3 km/h (1 Bft) O 0,00 h 0,026 mm 0,0 UV-I 0 W/m -1,2 C 3,4 C 6,3 km/h (2 Bft)
01.03.2015 03:00 3,4 C 73 % 1008,3 hPa 0,0 l/m 3,1 km/h (1 Bft) SO 0,00 h 0,025 mm 0,0 UV-I 0 W/m -1,0 C 3,4 C 11,7 km/h (2 Bft)
01.03.2015 04:00 2,9 C 79 % 1007,3 hPa 0,0 l/m 5,1 km/h (1 Bft) SW 0,00 h 0,026 mm 0,0 UV-I 0 W/m -0,4 C 2,9 C 15,8 km/h (3 Bft)
01.03.2015 05:00 2,2 C 88 % 1006,7 hPa 0,4 l/m 3,6 km/h (1 Bft) W 0,00 h 0,025 mm 0,0 UV-I 0 W/m 0,4 C 2,2 C 15,2 km/h (3 Bft)
01.03.2015 06:00 2,1 C 91 % 1006,0 hPa 0,0 l/m 2,4 km/h (1 Bft) S-SW 0,00 h 0,000 mm 0,0 UV-I 0 W/m 0,7 C 2,1 C 11,8 km/h (2 Bft)
01.03.2015 07:00 2,3 C 92 % 1005,6 hPa 0,4 l/m 3,1 km/h (1 Bft) S-SW 0,00 h 0,000 mm 0,0 UV-I 4 W/m 1,2 C 2,3 C 11,1 km/h (2 Bft)
01.03.2015 08:00 2,6 C 93 % 1005,3 hPa 0,0 l/m 2,8 km/h (1 Bft) W-SW 0,00 h 0,000 mm 0,0 UV-I 14 W/m 1,6 C 2,6 C 10,6 km/h (2 Bft)
01.03.2015 09:00 3,6 C 94 % 1005,0 hPa 0,0 l/m 6,4 km/h (2 Bft) W-SW 0,00 h 0,000 mm 0,0 UV-I 30 W/m 2,6 C 3,1 C 16,4 km/h (3 Bft)
01.03.2015 10:00 4,1 C 93 % 1005,2 hPa 0,0 l/m 10,0 km/h (2 Bft) SW 0,00 h 0,025 mm 0,6 UV-I 63 W/m 3,1 C 1,2 C 21,2 km/h (4 Bft)
01.03.2015 11:00 5,3 C 92 % 1005,1 hPa 0,0 l/m 10,8 km/h (2 Bft) S-SW 0,08 h 0,026 mm 0,9 UV-I 182 W/m 4,1 C 1,9 C 23,9 km/h (4 Bft)
01.03.2015 12:00 7,6 C 87 % 1004,8 hPa 0,0 l/m 11,1 km/h (2 Bft) S-SW 0,67 h 0,076 mm 1,6 UV-I 454 W/m 5,6 C 4,3 C 21,8 km/h (4 Bft)
01.03.2015 13:00 9,1 C 82 % 1004,2 hPa 0,0 l/m 8,3 km/h (2 Bft) S-SW 0,58 h 0,203 mm 1,3 UV-I 307 W/m 6,2 C 7,7 C 18,9 km/h (3 Bft)
01.03.2015 14:00 10,0 C 72 % 1004,3 hPa 0,0 l/m 12,9 km/h (3 Bft) W-SW 0,58 h 0,127 mm 1,0 UV-I 332 W/m 5,2 C 6,3 C 25,1 km/h (4 Bft)
01.03.2015 15:00 10,2 C 61 % 1004,2 hPa 0,0 l/m 14,1 km/h (3 Bft) W-SW 0,17 h 0,203 mm 0,7 UV-I 156 W/m 3,0 C 5,8 C 28,3 km/h (4 Bft)
01.03.2015 16:00 9,9 C 61 % 1004,0 hPa 0,0 l/m 8,6 km/h (2 Bft) SW 0,00 h 0,127 mm 0,4 UV-I 53 W/m 2,8 C 8,4 C 18,1 km/h (3 Bft)
01.03.2015 17:00 8,1 C 74 % 1004,6 hPa 0,0 l/m 8,6 km/h (2 Bft) W 0,17 h 0,051 mm 0,0 UV-I 28 W/m 3,8 C 6,5 C 18,2 km/h (3 Bft)
01.03.2015 18:00 7,3 C 77 % 1004,7 hPa 0,0 l/m 4,0 km/h (1 Bft) W 0,00 h 0,026 mm 0,0 UV-I 6 W/m 3,6 C 7,3 C 10,1 km/h (2 Bft)
01.03.2015 19:00 7,1 C 77 % 1004,7 hPa 0,0 l/m 2,3 km/h (1 Bft) W 0,00 h 0,000 mm 0,0 UV-I 0 W/m 3,4 C 7,1 C 7,1 km/h (2 Bft)
01.03.2015 20:00 7,1 C 78 % 1004,0 hPa 0,0 l/m 3,7 km/h (1 Bft) W 0,00 h 0,025 mm 0,0 UV-I 0 W/m 3,5 C 7,1 C 10,9 km/h (2 Bft)
01.03.2015 21:00 6,8 C 81 % 1003,7 hPa 0,0 l/m 3,2 km/h (1 Bft) SW 0,00 h 0,025 mm 0,0 UV-I 0 W/m 3,8 C 6,8 C 10,2 km/h (2 Bft)
01.03.2015 22:00 7,0 C 79 % 1002,7 hPa 0,0 l/m 4,2 km/h (1 Bft) S-SW 0,00 h 0,026 mm 0,0 UV-I 0 W/m 3,7 C 7,0 C 12,3 km/h (3 Bft)
01.03.2015 23:00 6,9 C 80 % 1001,7 hPa 0,0 l/m 2,9 km/h (1 Bft) S 0,00 h 0,025 mm 0,0 UV-I 0 W/m 3,7 C 6,9 C 9,3 km/h (2 Bft)
Min-Datum _ 25.02.15 28.02.15 23.02.15 - 23.02.15 - - - - - 25.02.15 23.02.15 23.02.15
_ Min-Zeit 01:20 16:20 14:15 - 08:45 - - - - - 01:20 03:05 09:50
Minimum _ -1,8 C 49 % 996,9 hPa - 0,0 km/h (0 Bft) - - - - - -2,8 C -1,9 C 0,0 km/h (0 Bft)
Max-Datum _ 01.03.15 23.02.15 28.02.15 23.02.15 01.03.15 - 24.02.15 24.02.15 01.03.15 24.02.15 01.03.15 01.03.15 01.03.15
_ Max-Zeit 14:45 19:30 08:35 09:05 14:50 - 11:06 13:05 12:25 12:20 13:45 16:45 14:40
Maximum _ 10,8 C 95 % 1022,0 hPa 2,0 l/m 21,9 km/h
W-SW (4 Bft)
- 0,10 h 0,280 mm 2,0 UV-I 780 W/m 6,5 C 9,8 C 35,4 km/h
SW (5 Bft)
Durchschnitt _ 3,5 C 84 % 1011,6 hPa #15,4 l/m 2,6 km/h (1 Bft) W #22:20 h #6,427 mm 0,9 UV-I 159 W/m 1,0 C 3,2 C 7,4 km/h (2 Bft)